British Gannet — MGRX9 — position and weather

sailwx.info

Track history (hours):
 
Tides and Currents Weather Stations Pressure Air Temp Water Temp Dewpoint Dewpoint Depression Visibility Wind Speed Wind Dir Waves Ship Positions

British Gannet

Last reported at 2015-Aug-28 00:33 UTC. Time now 2015-Sep-05 16:18 UTC.
Position N 01°15' E 104°05'.
Warning: this ship's position is 8 days out of date.

Length 252 m; draft 9 m.

Type: Tanker. MMSI: 232150000.

Date/timePositionNaut miles runAvg speedWind from/ knotsBaromVisibWave heightAir tempDewpointWater temp
2015-Aug-28 00:33N 01°15' E 104°05'1010.6
2015-Aug-27 23:33N 01°15' E 103°54'0 0.2
2015-Aug-27 22:33N 01°15' E 103°55'0 0.0
2015-Aug-27 21:33N 01°15' E 103°55'0 0.0
2015-Aug-27 20:33N 01°15' E 103°55'0 0.0
2015-Aug-27 19:33N 01°15' E 103°55'0 0.1
2015-Aug-27 18:33N 01°15' E 103°55'0 0.0
2015-Aug-27 17:30N 01°15' E 103°55'0 0.1
2015-Aug-27 16:33N 01°15' E 103°55'0 0.0
2015-Aug-27 15:29N 01°15' E 103°55'0 0.2
2015-Aug-27 14:23N 01°15' E 103°54'0 0.1
2015-Aug-27 13:26N 01°15' E 103°54'0 0.0
2015-Aug-27 12:29N 01°15' E 103°54'0 0.0
2015-Aug-27 11:20N 01°15' E 103°54'0 0.0
2015-Aug-27 10:32N 01°15' E 103°54'0 0.0
2015-Aug-27 09:32N 01°15' E 103°54'0 0.0
2015-Aug-27 08:32N 01°15' E 103°54'0 0.0
2015-Aug-27 07:32N 01°15' E 103°54'0 0.0
2015-Aug-27 06:23N 01°15' E 103°54'0 0.0
2015-Aug-27 05:32N 01°15' E 103°54'0 0.0
2015-Aug-27 04:14N 01°15' E 103°54'0 0.0
2015-Aug-27 03:29N 01°15' E 103°54'0 0.1
2015-Aug-27 02:32N 01°15' E 103°54'0 0.0
2015-Aug-27 01:23N 01°15' E 103°54'0 0.1
2015-Aug-27 00:18N 01°15' E 103°55'2 2.9
2015-Aug-26 23:33N 01°15' E 103°57'6 5.8
2015-Aug-26 22:33N 01°16' E 104°02'9 8.3
2015-Aug-26 21:25N 01°17' E 104°12'3 0.1
2015-Aug-24 19:31N 01°19' E 104°09'3 0.1
2015-Aug-24 00:18N 01°18' E 104°12'32 0.7
2015-Aug-21 23:00N 01°48' E 104°24'0 0.0 180 / 101011.210.8 0.528.024.427.1
2015-Aug-20 23:00N 01°48' E 104°24'   180 / 101011.110.8 0.528.023.727.0
Track history (hours):
 
Tides and Currents Weather Stations Pressure Air Temp Water Temp Dewpoint Dewpoint Depression Visibility Wind Speed Wind Dir Waves Ship Positions

British Gannet

Last reported at 2015-Aug-28 00:33 UTC. Time now 2015-Sep-05 16:18 UTC.
Position N 01°15' E 104°05'.
Warning: this ship's position is 8 days out of date.

Length 252 m; draft 9 m.

Type: Tanker. MMSI: 232150000.

Date/timePositionNaut miles runAvg speedWind from/ knotsBaromVisibWave heightAir tempDewpointWater temp
2015-Aug-28 00:33N 01°15' E 104°05'1010.6
2015-Aug-27 23:33N 01°15' E 103°54'0 0.2
2015-Aug-27 22:33N 01°15' E 103°55'0 0.0
2015-Aug-27 21:33N 01°15' E 103°55'0 0.0
2015-Aug-27 20:33N 01°15' E 103°55'0 0.0
2015-Aug-27 19:33N 01°15' E 103°55'0 0.1
2015-Aug-27 18:33N 01°15' E 103°55'0 0.0
2015-Aug-27 17:30N 01°15' E 103°55'0 0.1
2015-Aug-27 16:33N 01°15' E 103°55'0 0.0
2015-Aug-27 15:29N 01°15' E 103°55'0 0.2
2015-Aug-27 14:23N 01°15' E 103°54'0 0.1
2015-Aug-27 13:26N 01°15' E 103°54'0 0.0
2015-Aug-27 12:29N 01°15' E 103°54'0 0.0
2015-Aug-27 11:20N 01°15' E 103°54'0 0.0
2015-Aug-27 10:32N 01°15' E 103°54'0 0.0
2015-Aug-27 09:32N 01°15' E 103°54'0 0.0
2015-Aug-27 08:32N 01°15' E 103°54'0 0.0
2015-Aug-27 07:32N 01°15' E 103°54'0 0.0
2015-Aug-27 06:23N 01°15' E 103°54'0 0.0
2015-Aug-27 05:32N 01°15' E 103°54'0 0.0
2015-Aug-27 04:14N 01°15' E 103°54'0 0.0
2015-Aug-27 03:29N 01°15' E 103°54'0 0.1
2015-Aug-27 02:32N 01°15' E 103°54'0 0.0
2015-Aug-27 01:23N 01°15' E 103°54'0 0.1
2015-Aug-27 00:18N 01°15' E 103°55'2 2.9
2015-Aug-26 23:33N 01°15' E 103°57'6 5.8
2015-Aug-26 22:33N 01°16' E 104°02'9 8.3
2015-Aug-26 21:25N 01°17' E 104°12'3 0.1
2015-Aug-24 19:31N 01°19' E 104°09'3 0.1
2015-Aug-24 00:18N 01°18' E 104°12'32 0.7
2015-Aug-21 23:00N 01°48' E 104°24'0 0.0 180 / 101011.210.8 0.528.024.427.1
2015-Aug-20 23:00N 01°48' E 104°24'   180 / 101011.110.8 0.528.023.727.0

Dump ship's entire track history